Weather at Salt Lake City International Airport

Public forecast

Using degrees Fahrenheit for public forecast. Weather courtesy of forecast.io.

Current aviation weather report (METAR) for Salt Lake City International Airport

Retrieved 2022/05/19 08:54 UTC (21 minutes ago):

KSLC 190854Z 15006KT 10SM SCT140 17/03 A2987 RMK AO2 SLP065 T01670028 58013

Aviation forecast (TAF) for Salt Lake City International Airport

Retrieved 2022/05/19 06:42 UTC (3 hours ago):

TAF KSLC 190541Z 1906/2012 15005KT P6SM SKC FM191600 29011KT P6SM SCT150 FM192100 34014G28KT P6SM BKN100 FM200400 33012G22KT P6SM BKN080 FM200900 31011KT P6SM SCT100